Time;durP1;ratioP1;P1;durP2;ratioP2;P2;SDS_P1;SDS_P2;PMS_P1;PMS_P2;Temp;Humidity;BMP_temperature;BMP_pressure;BME280_temperature;BME280_humidity;BME280_pressure;Samples;Min_cycle;Max_cycle;Signal;HPM_P1;HPM_P2
2023/05/18 00:01:20;;;;;;;5.90;3.33;;;;;;;14.20;100.00;99662.72;5156137;27;20046;-59
2023/05/18 00:03:47;;;;;;;5.97;3.08;;;;;;;14.43;100.00;99676.38;5155949;27;20499;-57
2023/05/18 00:06:12;;;;;;;6.82;3.17;;;;;;;14.45;100.00;99685.06;5155849;27;20416;-60
2023/05/18 00:08:38;;;;;;;4.15;3.05;;;;;;;14.42;100.00;99694.09;5156037;27;20099;-59
2023/05/18 00:11:05;;;;;;;5.43;2.63;;;;;;;14.54;100.00;99721.44;5155885;27;20047;-60
2023/05/18 00:13:32;;;;;;;2.90;2.70;;;;;;;14.33;100.00;99741.28;5155762;27;20262;-52
2023/05/18 00:15:57;;;;;;;2.85;2.53;;;;;;;14.42;100.00;99748.47;5155803;27;20492;-59
2023/05/18 00:18:25;;;;;;;4.78;3.90;;;;;;;14.24;100.00;99749.06;5155738;27;20051;-61
2023/05/18 00:20:57;;;;;;;3.17;2.25;;;;;;;14.07;100.00;99728.34;5154722;27;20042;-61
2023/05/18 00:23:25;;;;;;;2.58;2.20;;;;;;;14.49;100.00;99732.78;5155501;27;20051;-58
2023/05/18 00:25:50;;;;;;;5.82;2.13;;;;;;;14.43;100.00;99775.69;5155679;27;20078;-57
2023/05/18 00:28:17;;;;;;;2.72;2.10;;;;;;;14.26;100.00;99776.25;5155776;27;20141;-59
2023/05/18 00:30:43;;;;;;;2.33;2.00;;;;;;;14.39;100.00;99798.84;5157658;27;20061;-55
2023/05/18 00:33:09;;;;;;;1.92;1.83;;;;;;;14.45;100.00;99814.72;5159280;27;20043;-57
2023/05/18 00:35:35;;;;;;;2.28;1.85;;;;;;;14.08;100.00;99818.16;5159262;27;20055;-58
2023/05/18 00:38:01;;;;;;;3.22;2.17;;;;;;;14.41;100.00;99807.56;5159217;27;20474;-61
2023/05/18 00:40:28;;;;;;;4.28;1.60;;;;;;;14.49;100.00;99821.06;5159246;27;20050;-57
2023/05/18 00:42:54;;;;;;;2.65;2.35;;;;;;;14.13;100.00;99826.13;5159144;27;20076;-57
2023/05/18 00:45:20;;;;;;;3.10;1.95;;;;;;;14.11;100.00;99816.63;5159098;27;20050;-60
2023/05/18 00:47:47;;;;;;;3.00;2.80;;;;;;;14.02;100.00;99807.81;5158875;27;20190;-58
2023/05/18 00:50:13;;;;;;;7.30;2.20;;;;;;;14.17;100.00;99800.56;5157851;27;20110;-55
2023/05/18 00:52:39;;;;;;;1.95;1.75;;;;;;;13.86;100.00;99810.75;5159112;27;20137;-59
2023/05/18 00:55:07;;;;;;;1.75;1.65;;;;;;;13.80;100.00;99807.53;5158874;27;20058;-60
2023/05/18 00:57:35;;;;;;;1.80;1.70;;;;;;;13.70;100.00;99805.41;5159081;27;20145;-60
2023/05/18 01:00:03;;;;;;;1.85;1.75;;;;;;;13.80;100.00;99804.78;5158886;27;20431;-57
2023/05/18 01:02:30;;;;;;;2.10;1.90;;;;;;;13.77;100.00;99797.25;5158972;27;20051;-54
2023/05/18 01:04:56;;;;;;;2.95;1.77;;;;;;;13.73;100.00;99790.88;5158692;27;20412;-59
2023/05/18 01:07:25;;;;;;;1.95;1.70;;;;;;;13.79;100.00;99783.88;5158902;27;20251;-59
2023/05/18 01:09:51;;;;;;;1.65;1.50;;;;;;;13.76;100.00;99795.66;5158773;27;20071;-57
2023/05/18 01:12:20;;;;;;;3.47;1.45;;;;;;;14.07;100.00;99824.84;5158652;27;20056;-60
2023/05/18 01:14:51;;;;;;;4.43;1.80;;;;;;;13.70;100.00;99838.47;5158484;27;20323;-56
2023/05/18 01:17:28;;;;;;;1.83;1.73;;;;;;;13.82;100.00;99834.69;5157459;27;20404;-59
2023/05/18 01:20:28;;;;;;;1.83;1.65;;;;;;;13.64;100.00;99829.72;5158730;27;20046;-59
2023/05/18 01:23:28;;;;;;;2.15;2.05;;;;;;;13.54;100.00;99826.78;5158606;27;20050;-58
2023/05/18 01:26:13;;;;;;;5.75;2.53;;;;;;;13.35;100.00;99794.59;5158414;27;20107;-55
2023/05/18 01:28:42;;;;;;;4.57;1.75;;;;;;;13.44;100.00;99794.38;5158668;27;20051;-58
2023/05/18 01:31:08;;;;;;;2.60;2.40;;;;;;;13.36;100.00;99812.72;5158302;27;20154;-53
2023/05/18 01:33:34;;;;;;;3.53;2.42;;;;;;;13.01;100.00;99826.63;5158266;27;20053;-55
2023/05/18 01:36:00;;;;;;;3.80;2.30;;;;;;;13.00;100.00;99827.78;5158381;27;20077;-55
2023/05/18 01:38:27;;;;;;;2.53;2.30;;;;;;;13.38;100.00;99837.94;5158401;27;20107;-61
2023/05/18 01:41:07;;;;;;;3.63;1.90;;;;;;;13.30;100.00;99866.53;5158269;27;20137;-61
2023/05/18 01:43:35;;;;;;;3.00;2.10;;;;;;;13.37;100.00;99883.16;5157748;27;20533;-57
2023/05/18 01:46:06;;;;;;;4.10;2.17;;;;;;;13.34;100.00;99873.66;5158086;27;20054;-60
2023/05/18 01:48:37;;;;;;;2.47;1.92;;;;;;;12.98;100.00;99880.44;5158017;27;20050;-54
2023/05/18 01:51:04;;;;;;;2.70;2.50;;;;;;;13.10;100.00;99862.97;5157134;27;20141;-62
2023/05/18 01:53:37;;;;;;;2.67;2.20;;;;;;;12.99;100.00;99865.50;5158257;27;20074;-61
2023/05/18 01:56:07;;;;;;;7.45;3.50;;;;;;;13.25;100.00;99875.84;5158311;27;20424;-59
2023/05/18 01:58:34;;;;;;;3.13;2.13;;;;;;;13.16;100.00;99900.84;5158042;27;20055;-58
2023/05/18 02:01:00;;;;;;;2.47;2.03;;;;;;;13.09;100.00;99886.94;5157945;27;20050;-57
2023/05/18 02:03:26;;;;;;;2.40;2.20;;;;;;;13.26;100.00;99868.38;5157931;27;20051;-56
2023/05/18 02:05:52;;;;;;;3.38;2.13;;;;;;;13.03;100.00;99890.34;5157868;27;20339;-57
2023/05/18 02:08:18;;;;;;;2.95;2.10;;;;;;;12.91;100.00;99888.56;5157717;27;20508;-58
2023/05/18 02:10:44;;;;;;;2.50;2.10;;;;;;;13.08;100.00;99882.59;5157776;27;20137;-58
2023/05/18 02:13:09;;;;;;;2.90;2.33;;;;;;;12.87;100.00;99887.69;5157670;27;20042;-59
2023/05/18 02:15:36;;;;;;;5.43;2.20;;;;;;;12.97;100.00;99875.31;5156918;27;20404;-60
2023/05/18 02:18:02;;;;;;;2.95;2.22;;;;;;;12.79;100.00;99874.94;5156491;27;20050;-57
2023/05/18 02:20:32;;;;;;;2.63;2.42;;;;;;;13.10;100.00;99863.78;5157732;27;20093;-60
2023/05/18 02:23:17;;;;;;;2.75;2.40;;;;;;;13.36;100.00;99887.88;5157776;27;20046;-59
2023/05/18 02:25:43;;;;;;;2.50;2.30;;;;;;;13.60;100.00;99908.75;5157552;27;20050;-57
2023/05/18 02:28:09;;;;;;;2.38;2.17;;;;;;;13.76;100.00;99943.66;5157612;27;20297;-57
2023/05/18 02:30:35;;;;;;;3.55;2.55;;;;;;;13.58;100.00;99948.84;5157448;27;20137;-61
2023/05/18 02:33:03;;;;;;;2.67;2.47;;;;;;;13.62;100.00;99964.28;5157523;27;20057;-60
2023/05/18 02:35:29;;;;;;;2.45;2.30;;;;;;;13.65;100.00;99980.06;5157210;27;20064;-52
2023/05/18 02:37:57;;;;;;;2.47;2.28;;;;;;;13.60;100.00;99985.91;5157300;27;20390;-55
2023/05/18 02:40:23;;;;;;;2.25;2.05;;;;;;;13.26;100.00;99984.03;5156407;27;20055;-57
2023/05/18 02:42:48;;;;;;;2.95;2.70;;;;;;;13.32;100.00;99971.56;5156014;27;20190;-58
2023/05/18 02:45:14;;;;;;;2.92;2.63;;;;;;;13.38;100.00;99965.41;5157392;27;20055;-55
2023/05/18 02:47:42;;;;;;;5.10;3.40;;;;;;;13.33;100.00;99965.72;5157312;27;20046;-57
2023/05/18 02:50:10;;;;;;;4.68;4.25;;;;;;;12.82;100.00;99962.25;5157257;27;20051;-60
2023/05/18 02:52:36;;;;;;;4.93;4.10;;;;;;;12.66;100.00;99952.13;5157150;27;20084;-60
2023/05/18 02:55:02;;;;;;;4.97;4.00;;;;;;;12.72;100.00;99931.41;5156017;27;20469;-60
2023/05/18 02:57:27;;;;;;;5.28;3.97;;;;;;;12.32;100.00;99922.66;5156958;27;20047;-57
2023/05/18 02:59:53;;;;;;;8.32;4.63;;;;;;;12.37;100.00;99908.63;5156964;27;20095;-55
2023/05/18 03:02:21;;;;;;;5.40;4.43;;;;;;;12.56;100.00;99905.09;5156855;27;20133;-59
2023/05/18 03:04:52;;;;;;;7.00;4.32;;;;;;;12.73;100.00;99934.97;5156801;27;20153;-59
2023/05/18 03:07:19;;;;;;;7.85;5.03;;;;;;;12.52;100.00;99935.28;5156557;27;20078;-53
2023/05/18 03:09:45;;;;;;;7.53;4.18;;;;;;;12.41;100.00;99942.50;5155578;27;20061;-54
2023/05/18 03:12:11;;;;;;;7.45;5.07;;;;;;;12.53;100.00;99936.91;5156784;27;20325;-56
2023/05/18 03:14:37;;;;;;;9.00;5.38;;;;;;;12.29;100.00;99939.84;5156619;27;20057;-61
2023/05/18 03:17:04;;;;;;;13.18;6.22;;;;;;;12.35;100.00;99908.97;5156992;27;20118;-59
2023/05/18 03:19:31;;;;;;;10.23;4.97;;;;;;;12.37;100.00;99934.19;5156743;27;20043;-62
2023/05/18 03:21:57;;;;;;;7.97;4.95;;;;;;;12.18;100.00;99915.66;5156709;27;20046;-60
2023/05/18 03:24:25;;;;;;;9.38;5.63;;;;;;;12.16;100.00;99900.69;5156616;27;20057;-62
2023/05/18 03:26:53;;;;;;;7.35;4.65;;;;;;;11.73;100.00;99907.88;5156586;27;20047;-62
2023/05/18 03:29:19;;;;;;;11.60;5.47;;;;;;;11.67;100.00;99846.91;5156510;27;20091;-55
2023/05/18 03:31:45;;;;;;;11.90;5.47;;;;;;;12.09;100.00;99845.56;5156412;27;20141;-58
2023/05/18 03:34:11;;;;;;;7.97;5.35;;;;;;;11.75;100.00;99845.94;5156282;27;20053;-55
2023/05/18 03:36:37;;;;;;;7.78;5.13;;;;;;;11.85;100.00;99822.63;5155612;27;21143;-53
2023/05/18 03:39:04;;;;;;;11.93;6.03;;;;;;;11.74;100.00;99838.84;5154985;27;20051;-61
2023/05/18 03:41:31;;;;;;;10.27;5.38;;;;;;;11.88;100.00;99841.16;5156514;27;20381;-56
2023/05/18 03:43:57;;;;;;;10.13;5.38;;;;;;;11.83;100.00;99862.56;5156514;27;20047;-56
2023/05/18 03:46:23;;;;;;;12.57;5.15;;;;;;;11.67;100.00;99877.13;5156355;27;20133;-60
2023/05/18 03:48:50;;;;;;;7.43;4.90;;;;;;;11.79;100.00;99917.44;5156359;27;20047;-56
2023/05/18 03:51:16;;;;;;;9.27;5.60;;;;;;;11.61;100.00;99914.25;5156225;27;20058;-61
2023/05/18 03:53:42;;;;;;;7.07;5.55;;;;;;;11.69;100.00;99920.72;5156237;27;20050;-59
2023/05/18 03:56:07;;;;;;;7.97;4.85;;;;;;;11.65;100.00;99919.84;5156058;27;20141;-58
2023/05/18 03:58:34;;;;;;;7.03;4.18;;;;;;;11.81;100.00;99939.06;5156034;27;20051;-55
2023/05/18 04:01:01;;;;;;;7.22;4.35;;;;;;;11.57;100.00;99948.28;5156039;27;20386;-55
2023/05/18 04:03:27;;;;;;;7.47;4.78;;;;;;;11.63;100.00;99961.41;5155951;27;20480;-56
2023/05/18 04:05:54;;;;;;;6.13;4.68;;;;;;;11.72;100.00;99967.50;5154872;27;20141;-57
2023/05/18 04:08:24;;;;;;;6.25;5.00;;;;;;;11.67;100.00;99972.47;5154802;27;20399;-55
2023/05/18 04:10:50;;;;;;;8.30;5.07;;;;;;;11.54;100.00;99961.53;5156083;27;20054;-56
2023/05/18 04:13:16;;;;;;;7.45;4.68;;;;;;;11.71;100.00;99957.66;5155779;27;20112;-60
2023/05/18 04:15:43;;;;;;;7.97;5.40;;;;;;;11.85;100.00;99971.00;5155924;27;20050;-58
2023/05/18 04:18:09;;;;;;;5.43;4.60;;;;;;;11.88;100.00;99997.78;5155742;27;20046;-57
2023/05/18 04:20:36;;;;;;;9.30;5.43;;;;;;;11.91;100.00;100013.56;5155766;27;20061;-54
2023/05/18 04:23:03;;;;;;;10.90;5.63;;;;;;;11.97;100.00;100028.63;5155704;27;20050;-58
2023/05/18 04:25:30;;;;;;;12.60;4.90;;;;;;;12.09;100.00;100046.97;5155707;27;20507;-60
2023/05/18 04:27:56;;;;;;;10.73;5.60;;;;;;;11.79;100.00;100049.28;5155617;27;20050;-56
2023/05/18 04:30:28;;;;;;;8.35;5.57;;;;;;;11.47;100.00;100012.72;5155568;27;20047;-55
2023/05/18 04:32:56;;;;;;;9.77;4.82;;;;;;;11.59;100.00;100001.66;5154688;27;20051;-53
2023/05/18 04:35:24;;;;;;;11.77;5.47;;;;;;;11.14;100.00;99989.06;5154772;27;20430;-60
2023/05/18 04:37:50;;;;;;;13.68;5.35;;;;;;;11.24;100.00;99974.84;5155614;27;20047;-56
2023/05/18 04:40:16;;;;;;;9.05;4.53;;;;;;;11.28;100.00;99972.19;5155646;27;20047;-56
2023/05/18 04:42:44;;;;;;;10.60;4.75;;;;;;;11.35;100.00;99949.63;5155382;27;20054;-60
2023/05/18 04:45:15;;;;;;;9.40;4.90;;;;;;;11.60;100.00;99959.34;5155507;27;20054;-59
2023/05/18 04:47:41;;;;;;;9.18;4.80;;;;;;;11.43;100.00;99973.38;5155291;27;20321;-60
2023/05/18 04:50:08;;;;;;;12.65;5.25;;;;;;;11.39;100.00;99997.19;5155248;27;20043;-53
2023/05/18 04:52:35;;;;;;;9.75;4.82;;;;;;;11.40;100.00;99991.38;5155124;27;20423;-55
2023/05/18 04:55:01;;;;;;;8.45;4.28;;;;;;;11.21;100.00;100007.69;5155192;27;20335;-59
2023/05/18 04:57:27;;;;;;;8.98;4.97;;;;;;;11.20;100.00;100006.09;5155266;27;20133;-61
2023/05/18 04:59:53;;;;;;;8.15;4.43;;;;;;;11.38;100.00;100020.31;5154517;27;20051;-60
2023/05/18 05:02:19;;;;;;;7.82;4.47;;;;;;;11.80;100.00;100052.88;5153675;27;20085;-59
2023/05/18 05:04:45;;;;;;;6.25;4.25;;;;;;;11.48;100.00;100072.00;5137850;27;20512;-55
2023/05/18 05:07:12;;;;;;;10.52;5.00;;;;;;;11.82;100.00;100087.06;5155061;27;20054;-62
2023/05/18 05:09:38;;;;;;;5.50;3.80;;;;;;;11.75;100.00;100106.09;5154866;27;20057;-60
2023/05/18 05:12:04;;;;;;;6.63;4.22;;;;;;;11.54;100.00;100109.03;5154857;27;20149;-64
2023/05/18 05:14:30;;;;;;;8.05;3.92;;;;;;;11.72;100.00;100115.81;5154620;27;20047;-58
2023/05/18 05:16:56;;;;;;;7.80;4.03;;;;;;;11.96;100.00;100122.41;5155597;27;20142;-60
2023/05/18 05:19:22;;;;;;;4.95;3.83;;;;;;;12.14;100.00;100137.44;5158308;27;20408;-64
2023/05/18 05:21:48;;;;;;;8.43;3.53;;;;;;;11.98;100.00;100144.84;5158358;27;20085;-60
2023/05/18 05:24:14;;;;;;;6.53;3.20;;;;;;;11.87;100.00;100149.25;5158166;27;20086;-58
2023/05/18 05:26:40;;;;;;;8.00;3.95;;;;;;;11.88;100.00;100156.34;5158729;27;20042;-60
2023/05/18 05:29:06;;;;;;;7.10;3.78;;;;;;;11.88;100.00;100159.09;5157870;27;20488;-58
2023/05/18 05:31:33;;;;;;;6.70;3.45;;;;;;;11.90;100.00;100171.34;5156714;27;20133;-58
2023/05/18 05:33:59;;;;;;;6.38;3.83;;;;;;;11.78;100.00;100165.84;5157989;27;20055;-53
2023/05/18 05:36:25;;;;;;;7.35;3.97;;;;;;;11.83;100.00;100171.09;5158066;27;20082;-55
2023/05/18 05:38:51;;;;;;;9.30;3.70;;;;;;;11.97;100.00;100168.78;5158289;27;20425;-55
2023/05/18 05:41:19;;;;;;;4.32;3.10;;;;;;;12.28;100.00;100171.97;5158057;27;20135;-53
2023/05/18 05:43:45;;;;;;;6.82;3.60;;;;;;;12.17;100.00;100164.22;5157896;27;20102;-57
2023/05/18 05:46:11;;;;;;;6.10;3.60;;;;;;;12.14;100.00;100162.19;5158121;27;20141;-57
2023/05/18 05:48:37;;;;;;;12.30;4.28;;;;;;;12.16;100.00;100167.31;5158092;27;20107;-58
2023/05/18 05:51:03;;;;;;;5.75;3.70;;;;;;;12.24;100.00;100167.16;5157851;27;20075;-61
2023/05/18 05:53:28;;;;;;;8.55;3.75;;;;;;;12.17;100.00;100179.94;5157897;27;20141;-58
2023/05/18 05:55:55;;;;;;;4.55;3.13;;;;;;;11.93;100.00;100183.59;5157645;27;20133;-57
2023/05/18 05:58:22;;;;;;;5.35;3.53;;;;;;;11.96;100.00;100182.84;5157565;27;20332;-58
2023/05/18 06:00:48;;;;;;;5.75;3.78;;;;;;;11.85;100.00;100181.75;5156548;27;20051;-58
2023/05/18 06:03:14;;;;;;;4.53;3.58;;;;;;;11.80;100.00;100188.28;5157585;27;20301;-56
2023/05/18 06:05:40;;;;;;;6.63;3.53;;;;;;;11.89;100.00;100193.66;5157679;27;20078;-57
2023/05/18 06:08:06;;;;;;;6.18;3.42;;;;;;;11.90;100.00;100198.00;5157273;27;20096;-61
2023/05/18 06:10:32;;;;;;;5.72;3.85;;;;;;;12.02;100.00;100201.50;5157551;27;20082;-63
2023/05/18 06:12:58;;;;;;;4.03;2.72;;;;;;;12.05;100.00;100200.00;5157530;27;20050;-60
2023/05/18 06:15:24;;;;;;;5.38;3.38;;;;;;;12.10;100.00;100197.03;5157415;27;20055;-56
2023/05/18 06:17:50;;;;;;;10.02;3.47;;;;;;;12.13;100.00;100198.25;5157337;27;20043;-57
2023/05/18 06:20:16;;;;;;;14.15;3.38;;;;;;;12.20;100.00;100196.50;5157337;27;20131;-54
2023/05/18 06:22:43;;;;;;;3.45;3.05;;;;;;;12.13;100.00;100190.81;5157288;27;20055;-53
2023/05/18 06:25:09;;;;;;;3.60;2.88;;;;;;;11.97;100.00;100185.28;5157198;27;20385;-61
2023/05/18 06:27:35;;;;;;;4.32;3.10;;;;;;;12.24;100.00;100171.88;5156930;27;20043;-59
2023/05/18 06:30:02;;;;;;;5.85;3.30;;;;;;;11.87;100.00;100171.22;5157654;27;20189;-60
2023/05/18 06:32:29;;;;;;;5.95;3.08;;;;;;;11.83;100.00;100181.25;5156878;27;20051;-57
2023/05/18 06:34:56;;;;;;;6.90;3.35;;;;;;;11.96;100.00;100183.69;5157033;27;20103;-58
2023/05/18 06:37:22;;;;;;;4.03;2.92;;;;;;;12.04;100.00;100192.13;5156816;27;20463;-55
2023/05/18 06:39:48;;;;;;;5.07;3.22;;;;;;;11.98;100.00;100188.81;5156712;27;20127;-57
2023/05/18 06:42:14;;;;;;;4.03;3.03;;;;;;;12.07;100.00;100196.91;5156951;27;20129;-60
2023/05/18 06:44:40;;;;;;;8.05;3.25;;;;;;;12.11;100.00;100179.38;5156978;27;20078;-58
2023/05/18 06:47:06;;;;;;;8.02;3.45;;;;;;;12.07;100.00;100172.97;5156682;27;20438;-56
2023/05/18 06:49:33;;;;;;;5.03;3.20;;;;;;;12.09;100.00;100183.59;5156825;27;20392;-58
2023/05/18 06:51:59;;;;;;;6.95;3.40;;;;;;;11.98;100.00;100192.34;5156817;27;20320;-60
2023/05/18 06:57:46;;;;;;;9.38;3.58;;;;;;;11.80;100.00;100214.97;5156760;27;20050;-62
2023/05/18 07:00:13;;;;;;;4.45;3.22;;;;;;;11.66;100.00;100234.53;5156663;27;20079;-58
2023/05/18 07:02:42;;;;;;;4.40;3.25;;;;;;;11.61;100.00;100235.56;5156704;27;20058;-61
2023/05/18 07:08:11;;;;;;;5.85;3.80;;;;;;;12.10;100.00;100229.22;5155983;27;20286;-59
2023/05/18 07:10:37;;;;;;;12.90;3.80;;;;;;;12.07;100.00;100238.94;5155117;27;20047;-55
2023/05/18 07:13:03;;;;;;;6.97;4.47;;;;;;;11.90;100.00;100253.75;5156460;27;20072;-57
2023/05/18 07:15:29;;;;;;;7.03;3.83;;;;;;;11.74;100.00;100256.38;5156356;27;20054;-60
2023/05/18 07:17:55;;;;;;;7.95;3.75;;;;;;;11.78;100.00;100262.78;5156410;27;20085;-64
2023/05/18 07:20:21;;;;;;;9.13;4.07;;;;;;;11.90;100.00;100261.22;5156311;27;20051;-63
2023/05/18 07:22:48;;;;;;;13.45;4.65;;;;;;;11.85;100.00;100262.22;5156564;27;20133;-58
2023/05/18 07:25:14;;;;;;;11.55;4.60;;;;;;;11.72;100.00;100266.91;5156478;27;20137;-62
2023/05/18 07:27:40;;;;;;;8.98;3.90;;;;;;;11.72;100.00;100272.41;5156342;27;20070;-57
2023/05/18 07:30:08;;;;;;;11.45;4.70;;;;;;;11.92;100.00;100275.38;5156398;27;20051;-61
2023/05/18 07:32:34;;;;;;;7.72;4.63;;;;;;;12.16;100.00;100282.75;5156428;27;20057;-57
2023/05/18 07:34:59;;;;;;;17.00;5.18;;;;;;;12.12;100.00;100279.91;5156200;27;20046;-55
2023/05/18 07:37:25;;;;;;;8.98;5.10;;;;;;;12.43;100.00;100273.75;5155835;27;20046;-56
2023/05/18 07:39:52;;;;;;;8.23;4.88;;;;;;;12.38;100.00;100265.75;5154440;27;20046;-59
2023/05/18 07:42:18;;;;;;;7.43;4.32;;;;;;;12.10;100.00;100260.25;5139378;27;20051;-58
2023/05/18 07:44:44;;;;;;;8.73;4.10;;;;;;;12.29;100.00;100239.53;5156397;27;20369;-59
2023/05/18 07:47:10;;;;;;;8.15;4.03;;;;;;;12.40;100.00;100244.19;5156222;27;20396;-60
2023/05/18 07:49:37;;;;;;;9.57;3.53;;;;;;;12.20;100.00;100213.00;5156303;27;20047;-56
2023/05/18 07:52:05;;;;;;;6.55;3.30;;;;;;;12.25;100.00;100193.50;5155997;27;20418;-57
2023/05/18 07:54:31;;;;;;;10.43;3.72;;;;;;;12.45;100.00;100213.69;5156070;27;20141;-63
2023/05/18 07:56:57;;;;;;;6.18;3.50;;;;;;;12.38;100.00;100180.50;5155937;27;20111;-57
2023/05/18 07:59:23;;;;;;;9.88;4.13;;;;;;;11.91;100.00;100183.91;5155989;27;20142;-56
2023/05/18 08:01:49;;;;;;;12.18;4.22;;;;;;;12.27;100.00;100245.41;5155877;27;20133;-57
2023/05/18 08:04:15;;;;;;;9.82;3.35;;;;;;;12.39;100.00;100211.53;5155843;27;20054;-54
2023/05/18 08:06:41;;;;;;;11.73;3.95;;;;;;;12.33;100.00;100167.03;5155308;27;20137;-54
2023/05/18 08:09:07;;;;;;;9.20;3.78;;;;;;;12.30;100.00;100131.97;5154681;27;20050;-58
2023/05/18 08:11:33;;;;;;;9.82;3.78;;;;;;;11.96;100.00;100169.94;5138721;27;20072;-62
2023/05/18 08:13:59;;;;;;;7.97;3.70;;;;;;;12.33;100.00;100174.44;5155786;27;20047;-61
2023/05/18 08:16:26;;;;;;;10.32;4.43;;;;;;;12.34;100.00;100182.34;5155759;27;20051;-61
2023/05/18 08:18:51;;;;;;;7.78;3.70;;;;;;;12.34;100.00;100207.09;5155607;27;20058;-53
2023/05/18 08:21:17;;;;;;;9.02;4.18;;;;;;;12.34;100.00;100187.06;5155384;27;20412;-56
2023/05/18 08:23:43;;;;;;;10.85;3.90;;;;;;;12.41;100.00;100203.75;5155413;27;20043;-57
2023/05/18 08:26:11;;;;;;;11.95;4.03;;;;;;;12.38;100.00;100174.19;5155458;27;20096;-60
2023/05/18 08:28:37;;;;;;;14.93;4.07;;;;;;;12.37;100.00;100187.16;5155510;27;20051;-57
2023/05/18 08:31:05;;;;;;;7.38;3.80;;;;;;;12.38;100.00;100208.00;5155533;27;20412;-62
2023/05/18 08:33:31;;;;;;;13.38;3.75;;;;;;;12.34;100.00;100218.09;5155284;27;20047;-59
2023/05/18 08:35:57;;;;;;;9.30;3.25;;;;;;;12.46;100.00;100217.22;5154522;27;20328;-62
2023/05/18 08:38:23;;;;;;;13.68;4.43;;;;;;;12.38;100.00;100208.00;5154050;27;20050;-58
2023/05/18 08:40:55;;;;;;;7.15;4.03;;;;;;;12.52;100.00;100173.78;5138057;27;20061;-60
2023/05/18 08:43:26;;;;;;;10.82;3.70;;;;;;;12.63;100.00;100180.38;5155249;27;20417;-64
2023/05/18 08:45:58;;;;;;;5.47;3.08;;;;;;;12.43;100.00;100143.69;5155125;27;20062;-64
2023/05/18 08:48:30;;;;;;;13.25;3.72;;;;;;;12.52;100.00;100136.06;5155122;27;20473;-60
2023/05/18 08:50:57;;;;;;;8.77;2.88;;;;;;;12.61;100.00;100067.91;5155088;27;20081;-57
2023/05/18 08:53:24;;;;;;;9.70;3.97;;;;;;;12.64;100.00;100100.22;5157847;27;20083;-59
2023/05/18 08:55:53;;;;;;;11.65;3.55;;;;;;;12.86;100.00;100111.72;5158611;27;20078;-56
2023/05/18 08:58:22;;;;;;;9.40;4.43;;;;;;;12.73;100.00;100003.75;5158867;27;20051;-63
2023/05/18 09:00:52;;;;;;;10.23;4.05;;;;;;;12.45;100.00;100004.66;5157146;27;20137;-60
2023/05/18 09:03:21;;;;;;;17.65;4.18;;;;;;;12.59;100.00;99982.19;5159314;27;20063;-54
2023/05/18 09:05:49;;;;;;;10.15;3.70;;;;;;;12.72;100.00;99964.41;5159842;27;20424;-60
2023/05/18 09:08:15;;;;;;;8.98;4.50;;;;;;;12.51;100.00;100018.97;5158616;27;20460;-62
2023/05/18 09:10:41;;;;;;;9.77;3.72;;;;;;;12.29;100.00;100034.13;5158535;27;20058;-58
2023/05/18 09:13:08;;;;;;;6.80;3.22;;;;;;;12.38;100.00;100075.22;5158428;27;20137;-54
2023/05/18 09:15:34;;;;;;;10.98;3.60;;;;;;;12.69;100.00;100061.44;5158218;27;20106;-58
2023/05/18 09:18:00;;;;;;;6.97;3.33;;;;;;;12.92;100.00;100036.00;5158419;27;20055;-55
2023/05/18 09:20:27;;;;;;;5.97;3.20;;;;;;;12.70;100.00;99955.75;5158182;27;20327;-51
2023/05/18 09:22:54;;;;;;;6.63;3.40;;;;;;;12.56;100.00;99938.94;5158207;27;20445;-62
2023/05/18 09:25:20;;;;;;;6.80;3.08;;;;;;;12.42;100.00;99944.88;5158375;27;20058;-62
2023/05/18 09:27:47;;;;;;;5.40;2.60;;;;;;;12.50;100.00;99912.88;5157241;27;20061;-61
2023/05/18 09:30:13;;;;;;;4.20;2.80;;;;;;;12.66;100.00;99899.84;5157275;27;20046;-60
2023/05/18 09:32:39;;;;;;;7.13;3.08;;;;;;;12.81;100.00;99768.88;5158379;27;20196;-64
2023/05/18 09:35:07;;;;;;;9.50;2.78;;;;;;;12.86;100.00;99679.69;5158139;27;20050;-66
2023/05/18 09:37:33;;;;;;;6.45;3.17;;;;;;;13.11;100.00;99710.41;5158116;27;20137;-60
2023/05/18 09:40:03;;;;;;;9.45;3.20;;;;;;;12.97;100.00;99650.41;5158020;27;20223;-61
2023/05/18 09:42:36;;;;;;;4.45;2.33;;;;;;;13.10;100.00;99646.31;5158225;27;20085;-61
2023/05/18 09:45:02;;;;;;;8.48;3.70;;;;;;;13.22;100.00;99595.72;5158013;27;20352;-65
2023/05/18 09:47:28;;;;;;;10.75;3.40;;;;;;;13.38;100.00;99595.59;5157983;27;20046;-62
2023/05/18 09:49:56;;;;;;;7.28;3.05;;;;;;;13.35;100.00;99553.06;5157812;27;20138;-54
2023/05/18 09:52:21;;;;;;;7.00;3.55;;;;;;;13.39;100.00;99575.94;5158066;27;20099;-53
2023/05/18 09:54:58;;;;;;;5.57;2.60;;;;;;;13.32;100.00;99528.22;5156571;27;20145;-55
2023/05/18 09:57:24;;;;;;;6.47;2.95;;;;;;;13.19;100.00;99418.34;5142191;27;20043;-60
2023/05/18 09:59:55;;;;;;;6.95;3.17;;;;;;;13.13;100.00;99579.50;5159044;27;20050;-54
2023/05/18 10:02:24;;;;;;;5.35;2.47;;;;;;;12.95;100.00;99605.94;5157279;27;20085;-57
2023/05/18 10:04:50;;;;;;;9.18;2.63;;;;;;;13.34;100.00;99473.59;5157621;27;20331;-57
2023/05/18 10:07:17;;;;;;;4.50;2.72;;;;;;;13.45;100.00;99482.75;5157334;27;20082;-56
2023/05/18 10:09:44;;;;;;;9.13;2.85;;;;;;;13.39;100.00;99446.53;5157599;27;20046;-59
2023/05/18 10:12:11;;;;;;;6.15;2.80;;;;;;;13.41;100.00;99490.97;5157693;27;20093;-57
2023/05/18 10:14:39;;;;;;;6.18;2.63;;;;;;;12.94;100.00;99530.84;5157730;27;20137;-59
2023/05/18 10:17:05;;;;;;;10.05;4.15;;;;;;;13.13;100.00;99543.72;5157407;27;20246;-53
2023/05/18 10:19:34;;;;;;;7.53;2.45;;;;;;;13.52;100.00;99479.28;5156223;27;20067;-59
2023/05/18 10:22:01;;;;;;;6.10;2.72;;;;;;;13.49;100.00;99400.16;5156548;27;20058;-62
2023/05/18 10:24:28;;;;;;;12.10;3.83;;;;;;;13.22;100.00;99551.69;5157245;27;20057;-63
2023/05/18 10:27:00;;;;;;;8.20;3.03;;;;;;;12.90;100.00;99631.84;5157394;27;20077;-61
2023/05/18 10:29:27;;;;;;;17.90;2.95;;;;;;;13.09;100.00;99768.56;5157355;27;20047;-63
2023/05/18 10:32:01;;;;;;;9.68;3.00;;;;;;;13.08;100.00;99788.22;5157348;27;20061;-65
2023/05/18 10:34:27;;;;;;;8.82;3.20;;;;;;;13.16;100.00;99821.03;5156995;27;20423;-60
2023/05/18 10:36:55;;;;;;;6.72;3.05;;;;;;;12.95;100.00;99826.13;5157075;27;20046;-59
2023/05/18 10:39:21;;;;;;;12.68;3.67;;;;;;;13.11;100.00;99840.56;5157023;27;20167;-59
2023/05/18 10:41:48;;;;;;;6.35;2.83;;;;;;;13.28;100.00;99781.50;5157009;27;20382;-54
2023/05/18 10:44:14;;;;;;;5.72;2.80;;;;;;;13.37;100.00;99743.50;5156366;27;20145;-55
2023/05/18 10:46:41;;;;;;;5.65;3.03;;;;;;;13.18;100.00;99771.88;5155496;27;20149;-54
2023/05/18 10:49:13;;;;;;;6.68;3.30;;;;;;;13.19;100.00;99801.00;5157103;27;20130;-61
2023/05/18 10:51:42;;;;;;;10.50;3.28;;;;;;;13.03;100.00;99642.63;5156894;27;20103;-54
2023/05/18 10:54:12;;;;;;;4.25;2.33;;;;;;;13.32;100.00;99682.44;5156790;27;20305;-59
2023/05/18 10:56:40;;;;;;;8.50;2.90;;;;;;;13.75;100.00;99614.94;5156557;27;20309;-60
2023/05/18 10:59:07;;;;;;;5.15;2.58;;;;;;;13.28;100.00;99522.69;5156544;27;20046;-61
2023/05/18 11:01:33;;;;;;;5.90;3.35;;;;;;;13.32;100.00;99475.91;5156626;27;20046;-53
2023/05/18 11:04:01;;;;;;;9.68;3.13;;;;;;;13.32;100.00;99333.53;5156628;27;20146;-56
2023/05/18 11:06:27;;;;;;;5.38;2.35;;;;;;;13.27;100.00;99313.81;5156340;27;20047;-52
2023/05/18 11:08:53;;;;;;;6.85;2.83;;;;;;;13.55;100.00;99176.34;5156179;27;20137;-56
2023/05/18 11:11:23;;;;;;;6.78;2.63;;;;;;;13.22;100.00;99231.53;5154817;27;20196;-54
2023/05/18 11:13:50;;;;;;;8.15;2.42;;;;;;;13.77;100.00;99235.13;5156172;27;20146;-61
2023/05/18 11:16:17;;;;;;;7.47;2.63;;;;;;;13.82;100.00;99198.13;5155597;27;20187;-64
2023/05/18 11:18:45;;;;;;;4.53;2.42;;;;;;;13.30;100.00;99104.63;5156372;27;20046;-60
2023/05/18 11:21:50;;;;;;;7.95;2.90;;;;;;;13.59;100.00;99099.22;5156565;27;20046;-56
2023/05/18 11:24:22;;;;;;;6.18;3.05;;;;;;;13.89;100.00;99087.94;5156408;27;20065;-60
2023/05/18 11:26:50;;;;;;;5.57;2.85;;;;;;;14.32;100.00;99044.72;5153249;27;20103;-58
2023/05/18 11:29:17;;;;;;;7.28;2.30;;;;;;;14.34;100.00;98967.91;5137534;28;20096;-62